Time;durP1;ratioP1;P1;durP2;ratioP2;P2;SDS_P1;SDS_P2;PMS_P1;PMS_P2;Temp;Humidity;BMP_temperature;BMP_pressure;BME280_temperature;BME280_humidity;BME280_pressure;Samples;Min_cycle;Max_cycle;Signal;HPM_P1;HPM_P2
2022/07/24 00:02:11;;;;;;;;;;;25.20;44.60;;;;;;5052245;28;20408;-61
2022/07/24 00:04:36;;;;;;;;;;;25.20;44.60;;;;;;5051450;28;20333;-61
2022/07/24 00:07:02;;;;;;;;;;;25.20;44.60;;;;;;5050980;28;19917;-61
2022/07/24 00:09:27;;;;;;;;;;;25.20;44.60;;;;;;5053611;28;19917;-61
2022/07/24 00:11:53;;;;;;;;;;;25.20;44.60;;;;;;5052859;28;20316;-61
2022/07/24 00:14:18;;;;;;;;;;;25.20;44.70;;;;;;5050183;28;20285;-61
2022/07/24 00:16:44;;;;;;;;;;;25.20;44.80;;;;;;5034873;28;20459;-61
2022/07/24 00:19:09;;;;;;;;;;;25.20;44.90;;;;;;5034855;28;20339;-61
2022/07/24 00:21:35;;;;;;;;;;;25.20;45.00;;;;;;5054079;28;19909;-61
2022/07/24 00:24:00;;;;;;;;;;;25.20;45.10;;;;;;5050295;28;19917;-61
2022/07/24 00:26:26;;;;;;;;;;;25.10;45.20;;;;;;5050708;28;20369;-61
2022/07/24 00:28:51;;;;;;;;;;;25.10;45.30;;;;;;5052694;28;19913;-61
2022/07/24 00:31:17;;;;;;;;;;;25.10;46.10;;;;;;5053224;28;19909;-61
2022/07/24 00:33:42;;;;;;;;;;;25.10;45.40;;;;;;5053640;28;19909;-61
2022/07/24 00:36:08;;;;;;;;;;;25.10;45.60;;;;;;5053171;28;20392;-61
2022/07/24 00:38:33;;;;;;;;;;;25.10;45.70;;;;;;5051766;28;20500;-61
2022/07/24 00:40:59;;;;;;;;;;;25.10;45.80;;;;;;5052402;28;20363;-61
2022/07/24 00:43:24;;;;;;;;;;;25.10;45.70;;;;;;5053627;28;19917;-61
2022/07/24 00:45:49;;;;;;;;;;;25.10;45.90;;;;;;5053121;28;19917;-61
2022/07/24 00:48:16;;;;;;;;;;;25.10;46.10;;;;;;5046312;28;19948;-61
2022/07/24 00:50:41;;;;;;;;;;;25.10;46.20;;;;;;5053774;28;19909;-61
2022/07/24 00:53:07;;;;;;;;;;;25.10;46.20;;;;;;5050143;28;19912;-61
2022/07/24 00:55:32;;;;;;;;;;;25.10;46.20;;;;;;5052535;28;19915;-61
2022/07/24 00:57:57;;;;;;;;;;;25.10;46.40;;;;;;5049449;28;20377;-61
2022/07/24 01:00:23;;;;;;;;;;;25.00;46.40;;;;;;5053177;28;19917;-61
2022/07/24 01:02:49;;;;;;;;;;;25.00;46.90;;;;;;5051456;28;19920;-61
2022/07/24 01:05:14;;;;;;;;;;;25.00;46.60;;;;;;5052593;28;19921;-61
2022/07/24 01:07:40;;;;;;;;;;;25.00;46.70;;;;;;5050852;28;19917;-62
2022/07/24 01:10:05;;;;;;;;;;;25.00;46.70;;;;;;5053358;28;19916;-61
2022/07/24 01:12:31;;;;;;;;;;;24.90;46.70;;;;;;5050611;28;19921;-61
2022/07/24 01:14:57;;;;;;;;;;;24.90;46.70;;;;;;5050008;28;19920;-61
2022/07/24 01:17:22;;;;;;;;;;;24.90;46.70;;;;;;5052813;28;20348;-62
2022/07/24 01:19:48;;;;;;;;;;;25.00;46.80;;;;;;5051898;28;20322;-62
2022/07/24 01:22:13;;;;;;;;;;;25.00;46.70;;;;;;5051413;28;19943;-61
2022/07/24 01:24:38;;;;;;;;;;;25.00;46.70;;;;;;5051937;28;20423;-61
2022/07/24 01:27:04;;;;;;;;;;;25.00;46.70;;;;;;5052804;28;20265;-62
2022/07/24 01:29:30;;;;;;;;;;;24.90;46.70;;;;;;5050802;28;19912;-61
2022/07/24 01:31:55;;;;;;;;;;;25.00;46.80;;;;;;5051820;28;19916;-61
2022/07/24 01:34:20;;;;;;;;;;;25.00;46.70;;;;;;5050710;28;20537;-61
2022/07/24 01:36:46;;;;;;;;;;;24.90;46.70;;;;;;5049755;28;20342;-61
2022/07/24 01:39:11;;;;;;;;;;;25.00;46.70;;;;;;5050905;28;19913;-61
2022/07/24 01:41:37;;;;;;;;;;;24.90;46.60;;;;;;5051905;28;20300;-61
2022/07/24 01:44:02;;;;;;;;;;;24.90;46.90;;;;;;5052394;28;19959;-61
2022/07/24 01:46:28;;;;;;;;;;;24.90;47.00;;;;;;5051490;28;19921;-61
2022/07/24 01:48:53;;;;;;;;;;;24.80;47.10;;;;;;5051251;28;19917;-61
2022/07/24 01:51:19;;;;;;;;;;;24.80;47.00;;;;;;5051608;28;19919;-61
2022/07/24 01:53:44;;;;;;;;;;;24.90;47.20;;;;;;5050539;28;20373;-60
2022/07/24 01:56:10;;;;;;;;;;;24.80;47.20;;;;;;5051738;28;20369;-61
2022/07/24 01:58:35;;;;;;;;;;;24.80;47.40;;;;;;5052181;28;20257;-61
2022/07/24 02:01:01;;;;;;;;;;;24.80;47.40;;;;;;5052104;28;20015;-61
2022/07/24 02:03:26;;;;;;;;;;;24.80;47.60;;;;;;5050500;28;20373;-61
2022/07/24 02:05:51;;;;;;;;;;;24.80;47.60;;;;;;5049348;28;20347;-61
2022/07/24 02:08:17;;;;;;;;;;;24.80;47.60;;;;;;5050224;28;20288;-61
2022/07/24 02:10:42;;;;;;;;;;;24.80;47.80;;;;;;5051369;28;20410;-61
2022/07/24 02:13:08;;;;;;;;;;;24.80;47.80;;;;;;5051915;28;20450;-61
2022/07/24 02:15:33;;;;;;;;;;;24.80;47.90;;;;;;5046007;28;20304;-61
2022/07/24 02:17:59;;;;;;;;;;;24.70;48.00;;;;;;5030719;28;19936;-61
2022/07/24 02:20:25;;;;;;;;;;;24.70;47.90;;;;;;5042280;28;20031;-61
2022/07/24 02:22:50;;;;;;;;;;;24.70;47.90;;;;;;5049837;28;20005;-61
2022/07/24 02:25:16;;;;;;;;;;;24.70;48.00;;;;;;5051377;28;19917;-61
2022/07/24 02:27:41;;;;;;;;;;;24.70;48.10;;;;;;5051801;28;19909;-60
2022/07/24 02:30:08;;;;;;;;;;;24.70;48.20;;;;;;5052053;28;19967;-61
2022/07/24 02:32:33;;;;;;;;;;;24.70;48.10;;;;;;5052141;28;20710;-59
2022/07/24 02:34:59;;;;;;;;;;;24.70;48.60;;;;;;5051337;28;19947;-61
2022/07/24 02:37:24;;;;;;;;;;;24.70;48.10;;;;;;5049372;28;19913;-61
2022/07/24 02:39:50;;;;;;;;;;;24.70;48.00;;;;;;5048398;28;19913;-61
2022/07/24 02:42:15;;;;;;;;;;;24.70;47.90;;;;;;5050748;28;19912;-61
2022/07/24 02:44:40;;;;;;;;;;;24.70;48.00;;;;;;5051058;28;19967;-61
2022/07/24 02:47:06;;;;;;;;;;;24.70;48.10;;;;;;5050393;28;19913;-61
2022/07/24 02:49:31;;;;;;;;;;;24.60;48.10;;;;;;5050999;28;19913;-61
2022/07/24 02:51:57;;;;;;;;;;;24.60;48.30;;;;;;5050164;28;19920;-61
2022/07/24 02:54:22;;;;;;;;;;;24.50;48.20;;;;;;5051777;28;19928;-61
2022/07/24 02:56:48;;;;;;;;;;;24.50;48.10;;;;;;5048954;28;20330;-61
2022/07/24 02:59:13;;;;;;;;;;;24.60;48.20;;;;;;5051353;28;19924;-61
2022/07/24 03:01:38;;;;;;;;;;;24.60;48.30;;;;;;5049663;28;19961;-61
2022/07/24 03:04:04;;;;;;;;;;;24.50;48.10;;;;;;5051515;28;20057;-61
2022/07/24 03:06:29;;;;;;;;;;;24.50;48.10;;;;;;5049889;28;19959;-62
2022/07/24 03:08:55;;;;;;;;;;;24.60;48.20;;;;;;5049366;28;19912;-61
2022/07/24 03:11:20;;;;;;;;;;;24.60;48.00;;;;;;5050386;28;19992;-61
2022/07/24 03:13:46;;;;;;;;;;;24.60;47.90;;;;;;5051188;28;19917;-61
2022/07/24 03:16:11;;;;;;;;;;;24.60;47.90;;;;;;5054543;28;19944;-61
2022/07/24 03:18:37;;;;;;;;;;;24.60;47.80;;;;;;5053867;28;19935;-61
2022/07/24 03:21:02;;;;;;;;;;;24.60;47.70;;;;;;5054532;28;20340;-61
2022/07/24 03:23:28;;;;;;;;;;;24.60;47.70;;;;;;5054602;28;19919;-61
2022/07/24 03:25:54;;;;;;;;;;;24.60;47.70;;;;;;5054021;28;20382;-61
2022/07/24 03:28:19;;;;;;;;;;;24.60;47.70;;;;;;5053593;28;19934;-61
2022/07/24 03:30:45;;;;;;;;;;;24.50;47.60;;;;;;5053927;28;19913;-61
2022/07/24 03:33:11;;;;;;;;;;;24.50;47.40;;;;;;5054083;28;19958;-61
2022/07/24 03:35:36;;;;;;;;;;;24.50;47.60;;;;;;5055342;28;19908;-60
2022/07/24 03:38:02;;;;;;;;;;;24.50;47.60;;;;;;5049637;28;19920;-61
2022/07/24 03:40:27;;;;;;;;;;;24.50;47.70;;;;;;5054892;28;19956;-61
2022/07/24 03:42:53;;;;;;;;;;;24.50;47.70;;;;;;5052088;28;19921;-61
2022/07/24 03:45:18;;;;;;;;;;;24.50;47.50;;;;;;5054043;28;20377;-61
2022/07/24 03:47:43;;;;;;;;;;;24.40;47.60;;;;;;5052628;28;20381;-61
2022/07/24 03:50:09;;;;;;;;;;;24.40;47.60;;;;;;5054719;28;20337;-61
2022/07/24 03:52:34;;;;;;;;;;;24.50;47.60;;;;;;5052340;28;20265;-61
2022/07/24 03:55:00;;;;;;;;;;;24.40;47.60;;;;;;5054034;28;20339;-61
2022/07/24 03:57:25;;;;;;;;;;;24.40;47.60;;;;;;5052723;28;19913;-61
2022/07/24 03:59:52;;;;;;;;;;;24.30;47.70;;;;;;5054529;28;20007;-61
2022/07/24 04:02:17;;;;;;;;;;;24.40;47.50;;;;;;5051068;28;20373;-61
2022/07/24 04:04:43;;;;;;;;;;;24.40;47.40;;;;;;5069679;28;19916;-61
2022/07/24 04:07:08;;;;;;;;;;;24.40;47.40;;;;;;5051476;28;19964;-61
2022/07/24 04:09:34;;;;;;;;;;;24.40;47.30;;;;;;5054204;28;19984;-61
2022/07/24 04:11:59;;;;;;;;;;;24.30;47.40;;;;;;5052879;28;20446;-61
2022/07/24 04:14:27;;;;;;;;;;;24.20;47.30;;;;;;5050055;28;20299;-61
2022/07/24 04:16:52;;;;;;;;;;;24.30;47.40;;;;;;5040004;28;20007;-61
2022/07/24 04:19:17;;;;;;;;;;;24.20;47.40;;;;;;5034249;28;19910;-61
2022/07/24 04:21:43;;;;;;;;;;;24.20;47.30;;;;;;5049475;28;19913;-61
2022/07/24 04:24:08;;;;;;;;;;;24.20;47.50;;;;;;5051842;28;19917;-61
2022/07/24 04:26:34;;;;;;;;;;;24.20;47.50;;;;;;5053657;28;19912;-61
2022/07/24 04:28:59;;;;;;;;;;;24.20;47.40;;;;;;5052663;28;19920;-61
2022/07/24 04:31:25;;;;;;;;;;;24.20;47.50;;;;;;5053155;28;19915;-61
2022/07/24 04:33:50;;;;;;;;;;;24.20;47.50;;;;;;5053004;28;20376;-61
2022/07/24 04:36:15;;;;;;;;;;;24.20;47.60;;;;;;5053932;28;19916;-61
2022/07/24 04:38:41;;;;;;;;;;;24.10;47.60;;;;;;5049613;28;19912;-61
2022/07/24 04:41:06;;;;;;;;;;;24.10;47.60;;;;;;5053759;28;19909;-61
2022/07/24 04:43:32;;;;;;;;;;;24.10;47.60;;;;;;5052687;28;19916;-61
2022/07/24 04:45:58;;;;;;;;;;;24.10;47.80;;;;;;5053794;28;19909;-61
2022/07/24 04:48:24;;;;;;;;;;;24.10;47.80;;;;;;5051323;28;19913;-61
2022/07/24 04:50:50;;;;;;;;;;;24.10;47.80;;;;;;5052467;28;20351;-61
2022/07/24 04:53:15;;;;;;;;;;;24.10;47.80;;;;;;5052711;28;19991;-60
2022/07/24 04:55:41;;;;;;;;;;;24.10;47.80;;;;;;5051566;28;19916;-61
2022/07/24 04:58:06;;;;;;;;;;;24.10;47.80;;;;;;5051709;28;20368;-61
2022/07/24 05:00:32;;;;;;;;;;;24.10;47.70;;;;;;5052859;28;19995;-61
2022/07/24 05:02:57;;;;;;;;;;;24.20;47.70;;;;;;5053041;28;19959;-61
2022/07/24 05:05:23;;;;;;;;;;;24.20;47.70;;;;;;5039648;28;19920;-62
2022/07/24 05:07:48;;;;;;;;;;;24.10;47.80;;;;;;5051628;28;19917;-61
2022/07/24 05:10:13;;;;;;;;;;;24.00;47.70;;;;;;5051130;28;19921;-61
2022/07/24 05:12:39;;;;;;;;;;;24.00;47.70;;;;;;5051091;28;19921;-61
2022/07/24 05:15:05;;;;;;;;;;;24.00;47.70;;;;;;5050688;28;19920;-61
2022/07/24 05:17:30;;;;;;;;;;;23.90;48.00;;;;;;5052713;28;20388;-60
2022/07/24 05:19:56;;;;;;;;;;;23.90;48.00;;;;;;5052275;28;19947;-62
2022/07/24 05:22:21;;;;;;;;;;;23.90;48.20;;;;;;5052123;28;19909;-61
2022/07/24 05:24:47;;;;;;;;;;;23.80;48.20;;;;;;5051170;28;19913;-61
2022/07/24 05:27:12;;;;;;;;;;;23.80;48.30;;;;;;5051893;28;19909;-61
2022/07/24 05:29:38;;;;;;;;;;;23.80;48.50;;;;;;5050197;28;19912;-61
2022/07/24 05:32:03;;;;;;;;;;;23.80;49.20;;;;;;5052084;28;19916;-61
2022/07/24 05:34:29;;;;;;;;;;;23.70;48.60;;;;;;5051665;28;19917;-61
2022/07/24 05:36:55;;;;;;;;;;;23.70;48.70;;;;;;5050367;28;19913;-61
2022/07/24 05:39:20;;;;;;;;;;;23.70;48.60;;;;;;5051331;28;19913;-62
2022/07/24 05:41:46;;;;;;;;;;;23.70;48.70;;;;;;5051308;28;20368;-61
2022/07/24 05:44:11;;;;;;;;;;;23.70;48.70;;;;;;5050016;28;20376;-61
2022/07/24 05:46:37;;;;;;;;;;;23.70;48.80;;;;;;5050097;28;20265;-61
2022/07/24 05:49:02;;;;;;;;;;;23.60;48.80;;;;;;5052249;28;19909;-61
2022/07/24 05:51:28;;;;;;;;;;;23.60;48.90;;;;;;5051497;28;20051;-61
2022/07/24 05:53:53;;;;;;;;;;;23.60;48.80;;;;;;5050822;28;20019;-61
2022/07/24 05:56:19;;;;;;;;;;;23.70;48.80;;;;;;5051720;28;19970;-61
2022/07/24 05:58:44;;;;;;;;;;;23.70;48.70;;;;;;5052120;28;19958;-61
2022/07/24 06:01:10;;;;;;;;;;;23.70;48.80;;;;;;5049184;28;20321;-61
2022/07/24 06:03:36;;;;;;;;;;;23.70;48.90;;;;;;5049379;28;19948;-61
2022/07/24 06:06:03;;;;;;;;;;;23.70;48.80;;;;;;5051563;28;19917;-61
2022/07/24 06:08:28;;;;;;;;;;;23.60;48.70;;;;;;5051229;28;19913;-61
2022/07/24 06:10:54;;;;;;;;;;;23.60;48.80;;;;;;5050372;28;19921;-61
2022/07/24 06:13:19;;;;;;;;;;;23.60;48.90;;;;;;5050057;28;19920;-62
2022/07/24 06:15:45;;;;;;;;;;;23.60;48.70;;;;;;5045593;28;19917;-61
2022/07/24 06:18:10;;;;;;;;;;;23.60;48.70;;;;;;5045219;28;19914;-61
2022/07/24 06:20:36;;;;;;;;;;;23.60;49.00;;;;;;5038522;28;19965;-61
2022/07/24 06:23:01;;;;;;;;;;;23.60;49.00;;;;;;5051190;28;19948;-61
2022/07/24 06:25:26;;;;;;;;;;;23.60;49.70;;;;;;5050631;28;19913;-61
2022/07/24 06:27:53;;;;;;;;;;;23.60;49.00;;;;;;5055424;28;19998;-61
2022/07/24 06:30:21;;;;;;;;;;;23.60;49.10;;;;;;5052096;28;19913;-61
2022/07/24 06:32:47;;;;;;;;;;;23.60;49.20;;;;;;5048105;28;19949;-61
2022/07/24 06:35:12;;;;;;;;;;;23.60;49.30;;;;;;5048791;28;19994;-61
2022/07/24 06:37:37;;;;;;;;;;;23.60;49.10;;;;;;5051034;28;19915;-61
2022/07/24 06:40:04;;;;;;;;;;;23.60;49.10;;;;;;5048954;28;20331;-61
2022/07/24 06:42:29;;;;;;;;;;;23.70;49.30;;;;;;5051319;28;19913;-61
2022/07/24 06:44:54;;;;;;;;;;;23.70;49.40;;;;;;5051297;28;19966;-61
2022/07/24 06:47:20;;;;;;;;;;;23.60;49.40;;;;;;5052256;28;19985;-61
2022/07/24 06:49:45;;;;;;;;;;;23.70;49.40;;;;;;5052969;28;19913;-61
2022/07/24 06:52:11;;;;;;;;;;;23.70;49.60;;;;;;5055050;28;20023;-61
2022/07/24 06:54:36;;;;;;;;;;;23.70;49.60;;;;;;5054906;28;19912;-61
2022/07/24 06:57:02;;;;;;;;;;;23.70;49.70;;;;;;5054384;28;19916;-60
2022/07/24 06:59:27;;;;;;;;;;;23.60;49.60;;;;;;5055620;28;20425;-61
2022/07/24 07:01:53;;;;;;;;;;;23.60;49.70;;;;;;5051524;28;19923;-61
2022/07/24 07:04:18;;;;;;;;;;;23.60;50.00;;;;;;5052737;28;19921;-61
2022/07/24 07:06:44;;;;;;;;;;;23.60;50.00;;;;;;5055580;28;20403;-61
2022/07/24 07:09:09;;;;;;;;;;;23.70;50.00;;;;;;5054833;28;19909;-61
2022/07/24 07:11:35;;;;;;;;;;;23.70;50.00;;;;;;5054276;28;19923;-61
2022/07/24 07:14:02;;;;;;;;;;;23.70;50.20;;;;;;5052760;28;19913;-61
2022/07/24 07:16:27;;;;;;;;;;;23.70;50.20;;;;;;5055188;28;19909;-60
2022/07/24 07:18:53;;;;;;;;;;;23.60;50.20;;;;;;5055017;28;19908;-61
2022/07/24 07:21:18;;;;;;;;;;;23.70;50.30;;;;;;5055299;28;19920;-61
2022/07/24 07:23:44;;;;;;;;;;;23.70;50.40;;;;;;5053892;28;19955;-61
2022/07/24 07:26:09;;;;;;;;;;;23.70;50.90;;;;;;5055378;28;19912;-62
2022/07/24 07:28:35;;;;;;;;;;;23.70;50.60;;;;;;5054099;28;19949;-61
2022/07/24 07:31:00;;;;;;;;;;;23.70;50.60;;;;;;5055062;28;19934;-61
2022/07/24 07:33:26;;;;;;;;;;;23.70;50.70;;;;;;5054736;28;19913;-60
2022/07/24 07:35:52;;;;;;;;;;;23.70;50.70;;;;;;5054980;28;20291;-60
2022/07/24 07:38:17;;;;;;;;;;;23.70;50.80;;;;;;5052091;28;19917;-61
2022/07/24 07:40:43;;;;;;;;;;;23.70;51.10;;;;;;5054893;28;19920;-61
2022/07/24 07:43:08;;;;;;;;;;;23.70;51.20;;;;;;5053691;28;19916;-61
2022/07/24 07:45:34;;;;;;;;;;;23.70;51.20;;;;;;5053752;28;20003;-61
2022/07/24 07:47:59;;;;;;;;;;;23.70;51.10;;;;;;5042090;28;19916;-62
2022/07/24 07:50:25;;;;;;;;;;;23.80;51.20;;;;;;5050218;28;19914;-61
2022/07/24 07:52:50;;;;;;;;;;;23.80;51.10;;;;;;5052638;28;20031;-61
2022/07/24 07:55:15;;;;;;;;;;;23.80;51.20;;;;;;5054513;28;19935;-61
2022/07/24 07:57:43;;;;;;;;;;;23.70;51.40;;;;;;5054030;28;19913;-61
2022/07/24 08:00:09;;;;;;;;;;;23.80;51.60;;;;;;5050124;28;19920;-61
2022/07/24 08:02:34;;;;;;;;;;;23.80;51.70;;;;;;5050427;28;20107;-61
2022/07/24 08:04:59;;;;;;;;;;;23.80;51.80;;;;;;5050638;28;19912;-61
2022/07/24 08:07:25;;;;;;;;;;;23.80;51.90;;;;;;5050492;28;19908;-61
2022/07/24 08:09:50;;;;;;;;;;;23.80;51.90;;;;;;5051992;28;19917;-60
2022/07/24 08:12:16;;;;;;;;;;;23.80;51.70;;;;;;5051532;28;20372;-60
2022/07/24 08:14:41;;;;;;;;;;;23.80;52.20;;;;;;5051606;28;19917;-60
2022/07/24 08:17:07;;;;;;;;;;;23.80;52.20;;;;;;5048930;28;19913;-61
2022/07/24 08:19:32;;;;;;;;;;;23.70;52.30;;;;;;5049003;28;19959;-61
2022/07/24 08:21:58;;;;;;;;;;;23.70;52.80;;;;;;5052736;28;19963;-61
2022/07/24 08:24:23;;;;;;;;;;;23.70;52.30;;;;;;5053982;28;19913;-60
2022/07/24 08:26:49;;;;;;;;;;;23.70;52.40;;;;;;5053911;28;19963;-60
2022/07/24 08:29:14;;;;;;;;;;;23.80;52.50;;;;;;5053864;28;19912;-60
2022/07/24 08:31:40;;;;;;;;;;;23.70;52.50;;;;;;5054279;28;19924;-60
2022/07/24 08:34:05;;;;;;;;;;;23.80;52.60;;;;;;5052352;28;19913;-60
2022/07/24 08:36:30;;;;;;;;;;;23.90;52.60;;;;;;5052480;28;19924;-61
2022/07/24 08:38:56;;;;;;;;;;;24.00;52.20;;;;;;5051023;28;19913;-60
2022/07/24 08:41:21;;;;;;;;;;;24.00;51.90;;;;;;5051533;28;19956;-61
2022/07/24 08:43:47;;;;;;;;;;;24.10;51.90;;;;;;5049285;28;19917;-61
2022/07/24 08:46:12;;;;;;;;;;;24.20;51.80;;;;;;5051380;28;19913;-60
2022/07/24 08:48:44;;;;;;;;;;;24.20;51.60;;;;;;5052104;28;20642;-60
2022/07/24 08:51:11;;;;;;;;;;;24.10;51.60;;;;;;5053563;28;19915;-61
2022/07/24 08:53:36;;;;;;;;;;;24.00;51.60;;;;;;5051700;28;19916;-60
2022/07/24 08:56:02;;;;;;;;;;;24.10;51.70;;;;;;5053417;28;19909;-60
2022/07/24 08:58:27;;;;;;;;;;;24.20;51.40;;;;;;5052054;28;19944;-61
2022/07/24 09:00:53;;;;;;;;;;;24.20;51.20;;;;;;5052761;28;20456;-60
2022/07/24 09:03:18;;;;;;;;;;;24.30;51.20;;;;;;5052445;28;19967;-60
2022/07/24 09:05:54;;;;;;;;;;;24.20;50.90;;;;;;5033342;28;20012;-60
2022/07/24 09:08:19;;;;;;;;;;;24.20;51.20;;;;;;5038597;28;20004;-61
2022/07/24 09:10:55;;;;;;;;;;;24.10;51.20;;;;;;5053159;28;19995;-60
2022/07/24 09:13:20;;;;;;;;;;;24.20;51.20;;;;;;5052926;28;19920;-61
2022/07/24 09:15:46;;;;;;;;;;;24.20;51.00;;;;;;5051056;28;19958;-60
2022/07/24 09:18:24;;;;;;;;;;;24.20;50.90;;;;;;5053009;28;19943;-61
2022/07/24 09:20:49;;;;;;;;;;;24.20;51.00;;;;;;5045121;28;19942;-60
2022/07/24 09:23:18;;;;;;;;;;;24.30;51.00;;;;;;5032243;28;20381;-60
2022/07/24 09:25:48;;;;;;;;;;;24.20;50.90;;;;;;5031955;28;19909;-60
2022/07/24 09:28:13;;;;;;;;;;;24.30;50.90;;;;;;5031622;28;19913;-60
2022/07/24 09:30:43;;;;;;;;;;;24.40;50.90;;;;;;5032901;28;19909;-59
2022/07/24 09:33:11;;;;;;;;;;;24.40;50.70;;;;;;5047721;28;19912;-60
2022/07/24 09:35:38;;;;;;;;;;;24.40;50.70;;;;;;5052882;28;20396;-60
2022/07/24 09:38:04;;;;;;;;;;;24.40;50.90;;;;;;5046074;28;19963;-61
2022/07/24 09:40:31;;;;;;;;;;;24.50;50.90;;;;;;5051572;28;19909;-60
2022/07/24 09:43:17;;;;;;;;;;;24.40;50.90;;;;;;5052590;28;19917;-61
2022/07/24 09:45:50;;;;;;;;;;;24.40;50.90;;;;;;5063459;28;19932;-61
2022/07/24 09:48:15;;;;;;;;;;;24.40;51.00;;;;;;5051219;28;19948;-61
2022/07/24 09:50:48;;;;;;;;;;;24.50;51.00;;;;;;5049013;28;19909;-61
2022/07/24 09:53:14;;;;;;;;;;;24.50;50.90;;;;;;5051780;28;19990;-61
2022/07/24 09:55:40;;;;;;;;;;;24.60;50.90;;;;;;5052568;28;19984;-61
2022/07/24 09:58:11;;;;;;;;;;;24.60;51.00;;;;;;5051058;28;20379;-61
2022/07/24 10:00:37;;;;;;;;;;;24.70;50.90;;;;;;5051426;28;19940;-61
2022/07/24 10:03:02;;;;;;;;;;;24.60;50.80;;;;;;5050998;28;19975;-61
2022/07/24 10:05:28;;;;;;;;;;;24.70;50.90;;;;;;5047206;28;19964;-61
2022/07/24 10:07:53;;;;;;;;;;;24.70;50.70;;;;;;5034184;28;19912;-61
2022/07/24 10:10:19;;;;;;;;;;;24.70;50.80;;;;;;5052182;28;19921;-60
2022/07/24 10:12:44;;;;;;;;;;;24.70;50.70;;;;;;5050584;28;20380;-60
2022/07/24 10:15:10;;;;;;;;;;;24.80;50.80;;;;;;5048511;28;20011;-61
2022/07/24 10:17:39;;;;;;;;;;;24.80;50.70;;;;;;5052060;28;20365;-61
2022/07/24 10:20:05;;;;;;;;;;;24.90;50.70;;;;;;5050441;28;20438;-61
2022/07/24 10:22:33;;;;;;;;;;;24.90;50.70;;;;;;5050693;28;19909;-60
2022/07/24 10:25:05;;;;;;;;;;;24.90;50.70;;;;;;5050878;28;19917;-61
2022/07/24 10:27:34;;;;;;;;;;;24.90;50.60;;;;;;5041643;28;20292;-61
2022/07/24 10:30:03;;;;;;;;;;;25.00;50.40;;;;;;5032486;28;19913;-61
2022/07/24 10:32:29;;;;;;;;;;;25.00;50.40;;;;;;5032005;28;20254;-61
2022/07/24 10:35:06;;;;;;;;;;;25.00;50.40;;;;;;5054558;28;19962;-60
2022/07/24 10:37:41;;;;;;;;;;;25.10;50.30;;;;;;5050348;28;19948;-61
2022/07/24 10:40:25;;;;;;;;;;;25.10;49.90;;;;;;5049790;28;19985;-61
2022/07/24 10:43:09;;;;;;;;;;;25.20;49.80;;;;;;5051501;28;19909;-61
2022/07/24 10:45:38;;;;;;;;;;;25.20;49.90;;;;;;5049810;28;19927;-61
2022/07/24 10:48:25;;;;;;;;;;;25.20;49.70;;;;;;5051977;28;19920;-61
2022/07/24 10:50:56;;;;;;;;;;;25.20;49.60;;;;;;5051819;28;19916;-61
2022/07/24 10:53:22;;;;;;;;;;;25.30;49.30;;;;;;5051046;28;19909;-60
2022/07/24 10:55:47;;;;;;;;;;;25.20;49.30;;;;;;5051928;28;19909;-61
2022/07/24 10:58:14;;;;;;;;;;;25.20;49.30;;;;;;5051778;28;20280;-61
2022/07/24 11:00:40;;;;;;;;;;;25.20;49.30;;;;;;5048933;28;19917;-61
2022/07/24 11:03:07;;;;;;;;;;;25.20;49.20;;;;;;5050947;28;20361;-61
2022/07/24 11:05:33;;;;;;;;;;;25.30;49.00;;;;;;5038288;28;19913;-61
2022/07/24 11:08:17;;;;;;;;;;;25.30;49.10;;;;;;5050862;28;19920;-61
2022/07/24 11:10:52;;;;;;;;;;;25.30;48.70;;;;;;5051640;28;19908;-61
2022/07/24 11:13:38;;;;;;;;;;;25.40;48.80;;;;;;5051097;28;20376;-61
2022/07/24 11:16:09;;;;;;;;;;;25.40;48.80;;;;;;5049970;28;20606;-61
2022/07/24 11:18:56;;;;;;;;;;;25.50;48.90;;;;;;5051264;28;20298;-61
2022/07/24 11:21:41;;;;;;;;;;;25.50;48.80;;;;;;5007642;28;20033;-61
2022/07/24 11:24:13;;;;;;;;;;;25.50;48.70;;;;;;5050811;28;19912;-61
2022/07/24 11:26:40;;;;;;;;;;;25.60;48.80;;;;;;5051431;28;19913;-62
2022/07/24 11:29:26;;;;;;;;;;;25.50;48.70;;;;;;5050516;28;20262;-61
2022/07/24 11:32:01;;;;;;;;;;;25.50;48.70;;;;;;5051573;28;20379;-61
2022/07/24 11:34:27;;;;;;;;;;;25.60;48.90;;;;;;5052040;28;19909;-61
2022/07/24 11:36:52;;;;;;;;;;;25.60;48.70;;;;;;5054506;28;20364;-61
2022/07/24 11:39:18;;;;;;;;;;;25.60;48.80;;;;;;5054975;28;19909;-61
2022/07/24 11:41:45;;;;;;;;;;;25.60;48.80;;;;;;5055223;28;20328;-61
2022/07/24 11:44:11;;;;;;;;;;;25.60;48.60;;;;;;5054692;28;20008;-61
2022/07/24 11:46:36;;;;;;;;;;;25.70;48.80;;;;;;5053899;28;19944;-61
2022/07/24 11:49:03;;;;;;;;;;;25.70;48.70;;;;;;5054667;28;19909;-61
2022/07/24 11:51:28;;;;;;;;;;;25.80;48.60;;;;;;5053712;28;19909;-61
2022/07/24 11:53:53;;;;;;;;;;;25.80;48.60;;;;;;5044807;28;19966;-61
2022/07/24 11:56:19;;;;;;;;;;;25.80;48.50;;;;;;5034886;28;19921;-62
2022/07/24 11:58:44;;;;;;;;;;;25.80;48.50;;;;;;5034493;28;19912;-61
2022/07/24 12:01:20;;;;;;;;;;;25.90;48.50;;;;;;5046696;28;19913;-61
2022/07/24 12:03:52;;;;;;;;;;;25.90;48.30;;;;;;5053250;28;20292;-61
2022/07/24 12:06:20;;;;;;;;;;;25.90;48.30;;;;;;5054549;28;19909;-61
2022/07/24 12:08:46;;;;;;;;;;;25.90;48.20;;;;;;5053596;28;19913;-61
2022/07/24 12:11:11;;;;;;;;;;;26.00;48.20;;;;;;5054280;28;19913;-61
2022/07/24 12:13:41;;;;;;;;;;;26.00;48.00;;;;;;5052844;28;19921;-61
2022/07/24 12:16:06;;;;;;;;;;;26.10;48.20;;;;;;5054680;28;19909;-61
2022/07/24 12:18:32;;;;;;;;;;;26.10;48.10;;;;;;5054172;28;19913;-61
2022/07/24 12:20:58;;;;;;;;;;;26.10;47.90;;;;;;5053179;28;19920;-61
2022/07/24 12:23:23;;;;;;;;;;;26.10;48.00;;;;;;5052123;28;19927;-61
2022/07/24 12:25:49;;;;;;;;;;;26.10;48.10;;;;;;5054182;28;20003;-61
2022/07/24 12:28:15;;;;;;;;;;;26.10;48.10;;;;;;5037605;28;20190;-61
2022/07/24 12:30:41;;;;;;;;;;;26.10;48.10;;;;;;5034533;28;19916;-61
2022/07/24 12:33:07;;;;;;;;;;;26.20;48.10;;;;;;5033960;28;19909;-61
2022/07/24 12:35:34;;;;;;;;;;;26.20;48.00;;;;;;5034332;28;20357;-61
2022/07/24 12:38:00;;;;;;;;;;;26.20;47.90;;;;;;5046475;28;19920;-61
2022/07/24 12:40:43;;;;;;;;;;;26.20;47.90;;;;;;5053870;28;19917;-61
2022/07/24 12:43:09;;;;;;;;;;;26.20;47.90;;;;;;5052215;28;19924;-61
2022/07/24 12:45:35;;;;;;;;;;;26.20;47.90;;;;;;5053565;28;20323;-61
2022/07/24 12:48:20;;;;;;;;;;;26.20;48.00;;;;;;5051882;28;19999;-61
2022/07/24 12:51:06;;;;;;;;;;;26.20;47.80;;;;;;5054052;28;19986;-61
2022/07/24 12:53:33;;;;;;;;;;;26.20;47.80;;;;;;5052775;28;20389;-61
2022/07/24 12:56:05;;;;;;;;;;;26.20;47.70;;;;;;5053985;28;20410;-61
2022/07/24 12:58:50;;;;;;;;;;;26.20;47.60;;;;;;5052494;28;20435;-61
2022/07/24 13:01:15;;;;;;;;;;;26.20;48.10;;;;;;5052523;28;19916;-61
2022/07/24 13:03:42;;;;;;;;;;;26.20;47.60;;;;;;5053182;28;19919;-61
2022/07/24 13:06:08;;;;;;;;;;;26.30;47.40;;;;;;5053663;28;19943;-61
2022/07/24 13:08:33;;;;;;;;;;;26.30;47.30;;;;;;5044722;28;19917;-61
2022/07/24 13:10:59;;;;;;;;;;;26.30;47.30;;;;;;5045052;28;19963;-61
2022/07/24 13:13:24;;;;;;;;;;;26.20;47.30;;;;;;5052297;28;19933;-61
2022/07/24 13:15:50;;;;;;;;;;;26.30;47.40;;;;;;5048503;28;20257;-61
2022/07/24 13:18:15;;;;;;;;;;;26.20;47.30;;;;;;5052631;28;19909;-61
2022/07/24 13:20:41;;;;;;;;;;;26.30;47.40;;;;;;5052549;28;19908;-61
2022/07/24 13:23:06;;;;;;;;;;;26.30;47.00;;;;;;5051686;28;19919;-61
2022/07/24 13:25:31;;;;;;;;;;;26.30;47.00;;;;;;5052620;28;19951;-61
2022/07/24 13:27:57;;;;;;;;;;;26.30;46.80;;;;;;5052717;28;19913;-60
2022/07/24 13:30:22;;;;;;;;;;;26.30;46.80;;;;;;5052292;28;19917;-61
2022/07/24 13:32:48;;;;;;;;;;;26.30;46.80;;;;;;5047926;28;19913;-61
2022/07/24 13:35:13;;;;;;;;;;;26.40;46.50;;;;;;5052844;28;20339;-61
2022/07/24 13:37:39;;;;;;;;;;;26.50;46.40;;;;;;5051973;28;19913;-61
2022/07/24 13:40:06;;;;;;;;;;;26.60;46.10;;;;;;5052809;28;19986;-61
2022/07/24 13:42:32;;;;;;;;;;;26.60;46.20;;;;;;5052563;28;19962;-61
2022/07/24 13:44:58;;;;;;;;;;;26.60;46.10;;;;;;5050525;28;20019;-61
2022/07/24 13:47:23;;;;;;;;;;;26.60;46.20;;;;;;5050611;28;20024;-61
2022/07/24 13:49:49;;;;;;;;;;;26.70;45.90;;;;;;5052658;28;19913;-61
2022/07/24 13:52:15;;;;;;;;;;;26.70;45.90;;;;;;5050261;28;20015;-61
2022/07/24 13:54:41;;;;;;;;;;;26.80;45.80;;;;;;5037321;28;19979;-61
2022/07/24 13:57:06;;;;;;;;;;;26.80;45.90;;;;;;5032029;28;20320;-61
2022/07/24 13:59:32;;;;;;;;;;;26.80;45.90;;;;;;5047902;28;19952;-61
2022/07/24 14:01:58;;;;;;;;;;;26.80;46.00;;;;;;5032312;28;20352;-61
2022/07/24 14:04:23;;;;;;;;;;;26.90;46.00;;;;;;5032364;28;19967;-61
2022/07/24 14:06:49;;;;;;;;;;;26.90;45.90;;;;;;5043638;28;20020;-61
2022/07/24 14:09:14;;;;;;;;;;;27.00;45.80;;;;;;5050824;28;20269;-61
2022/07/24 14:11:41;;;;;;;;;;;27.00;45.70;;;;;;5052157;28;19924;-61
2022/07/24 14:14:06;;;;;;;;;;;27.00;45.40;;;;;;5050276;28;20011;-61